logo
App data

Quantz

Experience a new dimension of puzzle action game fun in QuantZ for the PC; a fabulous adventure that goes beyond the Action-Puzzler, Match-3 and Marble Popper genres. The gameplay is simple yet addictive: you have the power to control a cube with your mouse and drop marbles onto it.
Store | Hub | SteamDB | Site
Developer: Gamerizon Publisher: Gamerizon
Genre: Indie, Casual
Languages: English, French, German, Italian, Japanese, Russian, Spanish - Spain
Tags: Indie (25), Casual (24), Puzzle (7)
Category: Single-player, Steam Achievements, Steam Cloud, Stats, Steam Leaderboards
Release date: Sep 3, 2009
Price: $9.99
Metascore: 67%
Owners: 20,000 .. 50,000
Followers: 0
Playtime total: 00:36 (average) 00:36 (median)

Steam Spy is still in beta, so expect major bugs.

Owners data:

Access restricted.

This feature is only available to users with special access rights. Sorry.

If you want to proceed, you need to register or log in first and then back Steam Spy on Patreon. Look for Indie or Pro pledge.

Don't forget to use the same email as on Steam Spy!

If you've recently backed Steam Spy on Patreon, please note, that it might take around 15 minutes for your access rights to sync. In most cases you'll need to re-login on Steam Spy too.

Audience in 2 weeks:

Access restricted.

This feature is only available to users with special access rights. Sorry.

If you want to proceed, you need to register or log in first and then back Steam Spy on Patreon. Look for Indie or Pro pledge.

Don't forget to use the same email as on Steam Spy!

If you've recently backed Steam Spy on Patreon, please note, that it might take around 15 minutes for your access rights to sync. In most cases you'll need to re-login on Steam Spy too.

Peak daily concurrent players:

CCU data courtesy of SteamDB. Used with permission.

Hourly concurrent players:

Daily Twitch stats:

Hourly Twitch stats:

Followers over time

Access restricted.

This feature is only available to users with special access rights. Sorry.

If you want to proceed, you need to register or log in first and then back Steam Spy on Patreon. Look for Indie or Pro pledge.

Don't forget to use the same email as on Steam Spy!

If you've recently backed Steam Spy on Patreon, please note, that it might take around 15 minutes for your access rights to sync. In most cases you'll need to re-login on Steam Spy too.

Views for top 50 videos on YouTube for this game:

Games similar to this one:

# Game Release date
Price
Score rank
(Userscore / Metascore)
Owners
Players
Playtime (Median)
1 Frog Climbers Oct 6, 2016 $1.39N/A (N/A)20,000 .. 50,0000%00:00 (00:00)
2 Bunny Hop League Apr 27, 2017 $5.99N/A (N/A)50,000 .. 100,0000%00:00 (00:00)
3 Space Drifters 2D Mar 28, 2016 $0.99N/A (N/A)20,000 .. 50,0000%00:00 (00:00)
4 Cubot Jan 8, 2015 $1.99N/A (N/A)20,000 .. 50,0000%00:00 (00:00)
5 Pressured Jul 18, 2014 $2.99N/A (N/A)200,000 .. 500,0000%00:00 (00:00)
6 Blocks That Matter Aug 19, 2011 $4.99N/A (N/A/72%)200,000 .. 500,0000%00:00 (00:00)
7 Where are my Internets? Dec 16, 2016 $2.99N/A (N/A)0 .. 20,0000%00:00 (00:00)
8 Burst Mar 14, 2016 N/AN/A (N/A)20,000 .. 50,0000%00:00 (00:00)
9 Evolution Jun 6, 2016 FreeN/A (N/A)20,000 .. 50,0000%00:00 (00:00)
10 Streets of Chaos Jan 23, 2015 N/AN/A (N/A)100,000 .. 200,0000%00:00 (00:00)
11 Quantum Rush Champions Dec 4, 2014 $9.99N/A (N/A)20,000 .. 50,0000%00:00 (00:00)
12 Girls Like Robots Feb 14, 2014 $6.99N/A (N/A)20,000 .. 50,0000%00:00 (00:00)
13 Thrillville: Off the Rails Oct 9, 2007 $9.99N/A (N/A/70%)20,000 .. 50,0000%00:00 (00:00)
14 Totally Unbalanced Jul 29, 2016 FreeN/A (N/A)0 .. 20,0000%00:00 (00:00)
15 Moonlight Feb 5, 2016 $1.99N/A (N/A)0 .. 20,0000%00:00 (00:00)
16 Fate Tectonics Sep 9, 2015 $0.49N/A (N/A)20,000 .. 50,0000%00:00 (00:00)
17 Crashed Lander Jun 17, 2014 $4.99N/A (N/A)0 .. 20,0000%00:00 (00:00)
18 Automation - The Car Company Tycoon Game Mar 12, 2015 $29.99N/A (N/A)200,000 .. 500,00016.67%03:54 (02:35)
19 Puzzler World 2 Oct 24, 2011 $4.99N/A (N/A)50,000 .. 100,0000%00:00 (00:00)
20 Kombine Oct 14, 2016 $0.99N/A (N/A)20,000 .. 50,00020%04:39 (02:19)
21 Forgotten, Not Lost - A Kinetic Novel Apr 2, 2016 $1.99N/A (N/A)20,000 .. 50,0000%00:00 (00:00)
22 Lift It Jan 20, 2017 $4.99N/A (N/A)50,000 .. 100,0000%00:00 (00:00)
23 Racecraft Mar 4, 2016 FreeN/A (N/A)20,000 .. 50,0000%00:00 (00:00)
24 Beyond Gravity Sep 23, 2014 $1.99N/A (N/A)20,000 .. 50,0000%00:00 (00:00)
25 Farm for your Life Jun 5, 2013 $9.99N/A (N/A)0 .. 20,0000%00:00 (00:00)
26 Crayon Physics Deluxe Jan 7, 2009 $19.99N/A (N/A/79%)500,000 .. 1,000,0000%00:00 (00:00)
27 12 Labours of Hercules V: Kids of Hellas (Platinum Edition) Jun 17, 2016 $2.99N/A (N/A)0 .. 20,0000%00:00 (00:00)
28 Surfingers Jan 27, 2016 $1.99N/A (N/A)50,000 .. 100,0000%00:00 (00:00)
29 Koala Kids Jun 22, 2015 $1.99N/A (N/A)50,000 .. 100,0000%00:00 (00:00)
30 Unhack Feb 20, 2014 $3.99N/A (N/A)20,000 .. 50,0000%00:00 (00:00)
31 Farm Frenzy 4 Aug 1, 2013 $6.99N/A (N/A)20,000 .. 50,0000%00:00 (00:00)
32 Luxor Evolved Mar 1, 2012 $9.99N/A (N/A)20,000 .. 50,0000%00:00 (00:00)
33 Luke Sidewalker Dec 5, 2016 FreeN/A (N/A)50,000 .. 100,0000%00:00 (00:00)
34 Reptilian Rebellion Aug 8, 2016 $2.99N/A (N/A)50,000 .. 100,0000%00:00 (00:00)
35 Cibele Nov 2, 2015 $8.99N/A (N/A/71%)50,000 .. 100,0000%00:00 (00:00)
36 Oil Enterprise Apr 20, 2016 $24.99N/A (N/A)0 .. 20,0000%00:00 (00:00)
37 Cosmonautica Jul 31, 2015 $9.99N/A (N/A)200,000 .. 500,0000%00:00 (00:00)
38 Dominique Pamplemousse Mar 11, 2014 $0.99N/A (N/A/62%)20,000 .. 50,0000%00:00 (00:00)
39 Windosill Sep 25, 2009 $2.99N/A (N/A)100,000 .. 200,0000%00:00 (00:00)
40 PRINCIPIA: Master of Science Sep 9, 2016 $2.99N/A (N/A)20,000 .. 50,0000%00:00 (00:00)
41 Sophie's Curse Mar 16, 2016 $4.99N/A (N/A)50,000 .. 100,0000%00:00 (00:00)
42 Painters Guild Sep 1, 2015 $9.99N/A (N/A)20,000 .. 50,0000%00:00 (00:00)
43 HyperRogue Jan 16, 2015 $9.99N/A (N/A)20,000 .. 50,0000%00:00 (00:00)
44 Spy Chameleon - RGB Agent Jun 11, 2014 $4.99N/A (N/A)20,000 .. 50,0000%00:00 (00:00)
45 Highborn Feb 19, 2013 $1.99N/A (N/A)0 .. 20,0000%00:00 (00:00)
46 One Night Stand Nov 7, 2016 $2.99N/A (N/A)20,000 .. 50,0000%00:00 (00:00)
47 Townopolis Oct 19, 2008 $3.99N/A (N/A)20,000 .. 50,0000%00:00 (00:00)
48 Herding Dog Dec 25, 2015 $0.99N/A (N/A)0 .. 20,0000%00:00 (00:00)
49 Pester Jan 25, 2013 $0.99N/A (N/A)20,000 .. 50,0000%00:00 (00:00)
50 The Treasures of Montezuma 3 May 19, 2011 $3.99N/A (N/A)0 .. 20,0000%00:00 (00:00)
51 Tribloos 2 Jan 12, 2013 $4.99N/A (N/A)20,000 .. 50,0000%00:00 (00:00)
52 Luxor: 5th Passage Jan 25, 2011 $9.99N/A (N/A)20,000 .. 50,0000%00:00 (00:00)
53 ConflictCraft Dec 8, 2016 $0.49N/A (N/A)100,000 .. 200,0000%00:00 (00:00)
54 RePete Nov 1, 2015 $1.99N/A (N/A)0 .. 20,0000%00:00 (00:00)
55 Job the Leprechaun Jul 31, 2015 $2.99N/A (N/A)20,000 .. 50,0000%00:00 (00:00)
56 Pixel Survivors May 5, 2016 $3.99N/A (N/A)50,000 .. 100,0000%00:00 (00:00)
57 The Treasures of Montezuma 4 Oct 9, 2013 $6.99N/A (N/A)20,000 .. 50,0000%00:00 (00:00)
58 Triple Town Dec 6, 2012 $9.99N/A (N/A)50,000 .. 100,0000%00:00 (00:00)
59 iREC Jan 16, 2017 $2.99N/A (N/A)100,000 .. 200,00012.5%04:52 (01:37)
60 Annie Amber Jun 17, 2016 $2.99N/A (N/A)0 .. 20,0000%00:00 (00:00)
61 BAD END Nov 25, 2015 $2.99N/A (N/A)0 .. 20,0000%00:00 (00:00)
62 Unium Feb 3, 2015 $1.99N/A (N/A)0 .. 20,0000%00:00 (00:00)
63 Letter Quest: Grimm's Journey Nov 20, 2014 $1.99N/A (N/A/73%)100,000 .. 200,0000%00:00 (00:00)
64 On Rusty Trails Jun 13, 2016 $12.99N/A (N/A/77%)20,000 .. 50,0000%00:00 (00:00)
65 Governor of Poker 2 - Premium Edition Oct 11, 2010 $7.99N/A (N/A)20,000 .. 50,0000%00:00 (00:00)
66 The Housewife Aug 25, 2016 $4.99N/A (N/A)200,000 .. 500,0000%00:00 (00:00)
67 Caravanserail Feb 26, 2016 $2.99N/A (N/A)0 .. 20,0000%00:00 (00:00)
68 Fantastic Contraption Apr 5, 2016 $19.99N/A (N/A)0 .. 20,0000%00:00 (00:00)
69 Crash Drive 2 May 28, 2015 $4.99N/A (N/A)200,000 .. 500,0000%00:00 (00:00)
70 Cyto Jul 10, 2014 $3.99N/A (N/A)20,000 .. 50,0000%00:00 (00:00)
71 Gateways Sep 13, 2012 $4.99N/A (N/A/72%)20,000 .. 50,0000%00:00 (00:00)
72 Access Denied Dec 16, 2016 $2.99N/A (N/A)20,000 .. 50,00033.33%00:24 (00:08)
73 Autumn Sep 23, 2014 $2.99N/A (N/A)100,000 .. 200,0000%00:00 (00:00)
74 Rescue Team 5 Sep 30, 2015 $3.99N/A (N/A)0 .. 20,0000%00:00 (00:00)
75 Red Goblin: Cursed Forest May 15, 2015 $4.99N/A (N/A)0 .. 20,0000%00:00 (00:00)
76 Goats on a Bridge Feb 6, 2015 $4.99N/A (N/A)50,000 .. 100,0000%00:00 (00:00)
77 Strata May 29, 2014 $7.99N/A (N/A)20,000 .. 50,0000%00:00 (00:00)
78 Arcadia Dec 2, 2010 N/AN/A (N/A)0 .. 20,0000%00:00 (00:00)
79 Strategy & Tactics: Dark Ages Aug 4, 2017 $14.99N/A (N/A)50,000 .. 100,0000%00:00 (00:00)
80 Overload May 31, 2018 $29.99N/A (N/A/74%)50,000 .. 100,0000%00:00 (00:00)
81 Robot vs Birds Zombies Jun 1, 2013 $0.99N/A (N/A)500,000 .. 1,000,0000%00:00 (00:00)
82 Bob Was Hungry Aug 19, 2015 $9.99N/A (N/A)50,000 .. 100,0000%00:00 (00:00)
83 Hidden in Plain Sight Jul 16, 2014 $5.99N/A (N/A)20,000 .. 50,0000%00:00 (00:00)
84 Gravi Oct 8, 2013 $4.99N/A (N/A)0 .. 20,0000%00:00 (00:00)
85 Pictopix Jan 5, 2017 $6.99N/A (N/A)20,000 .. 50,0000%00:00 (00:00)
86 The Dolls: Reborn May 25, 2016 $4.99N/A (N/A)20,000 .. 50,0000%00:00 (00:00)
87 Our Love Will Grow Dec 4, 2015 $4.99N/A (N/A)20,000 .. 50,0000%00:00 (00:00)
88 Power of Love Jul 21, 2015 $0.49N/A (N/A)20,000 .. 50,0000%00:00 (00:00)
89 Marble Duel: Sphere-Matching Tactical Fantasy Nov 12, 2015 $14.99N/A (N/A)50,000 .. 100,0000%00:00 (00:00)
90 Wildlife Park 3 May 12, 2014 $9.99N/A (N/A)100,000 .. 200,0000%00:00 (00:00)
91 Ancients of Ooga May 20, 2011 $9.99N/A (N/A)20,000 .. 50,0000%00:00 (00:00)
92 Farm Life: Natures Adventure Aug 8, 2016 $0.99N/A (N/A)50,000 .. 100,0000%00:00 (00:00)
93 Hustle Cat Mar 16, 2016 $19.99N/A (N/A)50,000 .. 100,0000%00:00 (00:00)
94 Collisions Jul 28, 2015 $1.59N/A (N/A)20,000 .. 50,0000%00:00 (00:00)
95 Pixel Puzzles 2: Birds Feb 20, 2015 $4.99N/A (N/A)200,000 .. 500,0000%00:00 (00:00)
96 Metrocide Oct 20, 2014 $12.99N/A (N/A/68%)50,000 .. 100,0000%00:00 (00:00)
97 Dead Man's Draw Feb 6, 2014 $6.99N/A (N/A)50,000 .. 100,0000%00:00 (00:00)
98 Dungeon Painter Studio Feb 26, 2017 $14.99N/A (N/A)50,000 .. 100,00020%00:23 (00:07)
99 Magma Tsunami Jun 1, 2016 $0.99N/A (N/A)200,000 .. 500,0000%00:00 (00:00)
100 Goodnight Butcher Dec 18, 2015 $1.99N/A (N/A)0 .. 20,0000%00:00 (00:00)
101 Hired Ops Oct 21, 2016 FreeN/A (N/A)200,000 .. 500,0000%00:00 (00:00)
102 Castle Jan 7, 2015 $4.99N/A (N/A)50,000 .. 100,0000%00:00 (00:00)
103 Sokobond Jul 21, 2014 $9.99N/A (N/A/82%)20,000 .. 50,0000%00:00 (00:00)
104 PixelJunk Eden Feb 2, 2012 $9.99N/A (N/A/81%)100,000 .. 200,0000%00:00 (00:00)
105 Dots eXtreme Sep 13, 2016 $1.99N/A (N/A)50,000 .. 100,0000%00:00 (00:00)
106 Blueprint Tycoon May 13, 2016 $0.74N/A (N/A)50,000 .. 100,0000%00:00 (00:00)
107 The Deletion Jul 30, 2015 $1.99N/A (N/A)20,000 .. 50,0000%00:00 (00:00)
108 Quell May 14, 2015 $3.99N/A (N/A)0 .. 20,0000%00:00 (00:00)
109 A Good Snowman Is Hard To Build Feb 25, 2015 $9.99N/A (N/A)50,000 .. 100,0000%00:00 (00:00)
110 Smooth Operators Jan 14, 2013 $2.99N/A (N/A)20,000 .. 50,0000%00:00 (00:00)
111 CarX Drift Racing Online Nov 17, 2017 $14.99N/A (N/A)500,000 .. 1,000,00025.93%06:30 (11:19)

Tags over time:

Access restricted.

This feature is only available to users with special access rights. Sorry.

If you want to proceed, you need to register or log in first and then back Steam Spy on Patreon. Look for Indie or Pro pledge.

Don't forget to use the same email as on Steam Spy!

If you've recently backed Steam Spy on Patreon, please note, that it might take around 15 minutes for your access rights to sync. In most cases you'll need to re-login on Steam Spy too.

Owners of this game also own:

Access restricted.

This feature is only available to users with special access rights. Sorry.

If you want to proceed, you need to register or log in first and then back Steam Spy on Patreon. Look for Indie or Pro pledge.

Don't forget to use the same email as on Steam Spy!

If you've recently backed Steam Spy on Patreon, please note, that it might take around 15 minutes for your access rights to sync. In most cases you'll need to re-login on Steam Spy too.

Playtime distribution:

Access restricted.

This feature is only available to users with special access rights. Sorry.

If you want to proceed, you need to register or log in first and then back Steam Spy on Patreon. Look for Indie or Pro pledge.

Don't forget to use the same email as on Steam Spy!

If you've recently backed Steam Spy on Patreon, please note, that it might take around 15 minutes for your access rights to sync. In most cases you'll need to re-login on Steam Spy too.

Playtime (2 weeks):

Access restricted.

This feature is only available to users with special access rights. Sorry.

If you want to proceed, you need to register or log in first and then back Steam Spy on Patreon. Look for Indie or Pro pledge.

Don't forget to use the same email as on Steam Spy!

If you've recently backed Steam Spy on Patreon, please note, that it might take around 15 minutes for your access rights to sync. In most cases you'll need to re-login on Steam Spy too.

User reviews:

Login required.

Please register or log in to see this information.